createdAt,value
2018-10-21T00:00:35.199Z,7.80
2018-10-21T00:03:04.083Z,7.90
2018-10-21T00:05:32.660Z,7.90
2018-10-21T00:08:01.233Z,7.90
2018-10-21T00:10:29.798Z,7.90
2018-10-21T00:12:58.347Z,7.90
2018-10-21T00:15:27.252Z,7.90
2018-10-21T00:17:55.687Z,7.70
2018-10-21T00:20:24.409Z,7.70
2018-10-21T00:22:53.340Z,7.70
2018-10-21T00:25:22.321Z,7.70
2018-10-21T00:27:51.349Z,7.60
2018-10-21T00:30:20.391Z,7.70
2018-10-21T00:32:50.409Z,7.60
2018-10-21T00:35:19.192Z,7.60
2018-10-21T00:37:47.891Z,7.60
2018-10-21T00:40:16.450Z,7.50
2018-10-21T00:42:45.004Z,7.50
2018-10-21T00:45:13.642Z,7.40
2018-10-21T00:47:42.180Z,7.40
2018-10-21T00:50:11.443Z,7.40
2018-10-21T00:52:40.220Z,7.40
2018-10-21T00:55:09.746Z,7.40
2018-10-21T00:57:38.279Z,7.30
2018-10-21T01:00:08.952Z,7.30
2018-10-21T01:02:37.554Z,7.20
2018-10-21T01:05:06.846Z,7.20
2018-10-21T01:07:35.389Z,7.20
2018-10-21T01:10:04.196Z,7.10
2018-10-21T01:12:32.733Z,7.20
2018-10-21T01:15:01.306Z,7.10
2018-10-21T01:17:29.855Z,7.00
2018-10-21T01:19:58.440Z,7.10
2018-10-21T01:22:27.048Z,6.90
2018-10-21T01:24:55.591Z,6.80
2018-10-21T01:27:24.123Z,6.90
2018-10-21T01:29:52.674Z,6.90
2018-10-21T01:32:21.249Z,6.90
2018-10-21T01:34:49.944Z,6.90
2018-10-21T01:37:18.588Z,6.90
2018-10-21T01:40:53.820Z,6.80
2018-10-21T01:43:24.656Z,6.80
2018-10-21T01:45:53.226Z,6.70
2018-10-21T01:48:23.067Z,6.60
2018-10-21T01:50:51.648Z,6.70
2018-10-21T01:53:20.767Z,6.70
2018-10-21T01:55:49.400Z,6.70
2018-10-21T01:58:17.949Z,6.70
2018-10-21T02:00:46.548Z,6.70
2018-10-21T02:03:15.366Z,6.70
2018-10-21T02:05:44.602Z,6.60
2018-10-21T02:08:13.272Z,6.50
2018-10-21T02:10:41.819Z,6.60
2018-10-21T02:13:10.448Z,6.50
2018-10-21T02:15:38.968Z,6.50
2018-10-21T02:18:07.718Z,6.50
2018-10-21T02:20:36.258Z,6.40
2018-10-21T02:23:04.916Z,6.50
2018-10-21T02:25:33.456Z,6.40
2018-10-21T02:28:02.058Z,6.40
2018-10-21T02:30:31.327Z,6.40
2018-10-21T02:33:00.556Z,6.40
2018-10-21T02:35:29.138Z,6.40
2018-10-21T02:37:58.333Z,6.30
2018-10-21T02:41:42.275Z,6.30
2018-10-21T02:44:19.497Z,6.30
2018-10-21T02:46:48.868Z,6.30
2018-10-21T02:49:18.043Z,6.20
2018-10-21T02:51:51.821Z,6.30
2018-10-21T02:54:27.604Z,6.20
2018-10-21T02:56:56.197Z,6.30
2018-10-21T02:59:25.280Z,6.20
2018-10-21T03:01:54.031Z,6.20
2018-10-21T03:04:22.736Z,6.20
2018-10-21T03:06:51.659Z,6.10
2018-10-21T03:09:20.313Z,6.10
2018-10-21T03:11:48.836Z,6.10
2018-10-21T03:14:17.392Z,6.10
2018-10-21T03:16:45.964Z,6.10
2018-10-21T03:19:14.696Z,6.10
2018-10-21T03:21:43.265Z,6.10
2018-10-21T03:24:11.830Z,6.00
2018-10-21T03:26:40.399Z,6.10
2018-10-21T03:29:08.932Z,6.10
2018-10-21T03:31:37.500Z,6.10
2018-10-21T03:34:06.141Z,6.00
2018-10-21T03:36:34.660Z,6.00
2018-10-21T03:39:03.420Z,6.00
2018-10-21T03:41:31.975Z,6.00
2018-10-21T03:44:00.535Z,6.00
2018-10-21T03:46:29.120Z,5.90
2018-10-21T03:48:57.705Z,5.90
2018-10-21T03:51:26.261Z,5.80
2018-10-21T03:53:54.825Z,5.80
2018-10-21T03:56:23.357Z,5.80
2018-10-21T03:58:51.952Z,5.80
2018-10-21T04:01:20.500Z,5.80
2018-10-21T04:03:49.044Z,5.80
2018-10-21T04:06:17.582Z,5.70
2018-10-21T04:08:46.138Z,5.60
2018-10-21T04:11:14.667Z,5.70
2018-10-21T04:13:43.236Z,5.70
2018-10-21T04:16:11.856Z,5.70
2018-10-21T04:18:40.343Z,5.60
2018-10-21T04:21:08.873Z,5.60
2018-10-21T04:23:37.432Z,5.60
2018-10-21T04:26:06.021Z,5.60
2018-10-21T04:28:34.591Z,5.60
2018-10-21T04:31:03.120Z,5.60
2018-10-21T04:33:45.701Z,5.60
2018-10-21T04:36:17.971Z,5.60
2018-10-21T04:38:55.428Z,5.60
2018-10-21T04:41:23.970Z,5.50
2018-10-21T04:43:52.519Z,5.40
2018-10-21T04:46:21.099Z,5.50
2018-10-21T04:48:49.640Z,5.50
2018-10-21T04:51:18.158Z,5.50
2018-10-21T04:53:46.716Z,5.40
2018-10-21T04:56:15.249Z,5.40
2018-10-21T04:58:43.809Z,5.50
2018-10-21T05:01:12.467Z,5.40
2018-10-21T05:03:41.011Z,5.40
2018-10-21T05:06:09.539Z,5.40
2018-10-21T05:08:38.096Z,5.40
2018-10-21T05:11:06.721Z,5.30
2018-10-21T05:13:35.397Z,5.30
2018-10-21T05:16:04.028Z,5.40
2018-10-21T05:18:32.595Z,5.40
2018-10-21T05:21:01.432Z,5.30
2018-10-21T05:23:30.000Z,5.40
2018-10-21T05:25:58.544Z,5.30
2018-10-21T05:28:27.107Z,5.30
2018-10-21T05:30:55.647Z,5.30
2018-10-21T05:33:24.199Z,5.20
2018-10-21T05:35:52.727Z,5.20
2018-10-21T05:38:21.279Z,5.20
2018-10-21T05:40:49.815Z,5.30
2018-10-21T05:43:18.372Z,5.20
2018-10-21T05:45:46.892Z,5.20
2018-10-21T05:48:15.448Z,5.10
2018-10-21T05:50:44.024Z,5.10
2018-10-21T05:53:12.578Z,5.20
2018-10-21T05:55:41.171Z,5.10
2018-10-21T05:58:09.770Z,5.10
2018-10-21T06:00:38.295Z,5.10
2018-10-21T06:03:06.839Z,5.20
2018-10-21T06:05:37.610Z,5.10
2018-10-21T06:08:06.179Z,5.10
2018-10-21T06:10:34.723Z,5.10
2018-10-21T06:13:03.284Z,5.10
2018-10-21T06:15:31.840Z,5.20
2018-10-21T06:18:00.725Z,5.10
2018-10-21T06:20:33.923Z,5.10
2018-10-21T06:23:02.528Z,5.10
2018-10-21T06:25:31.108Z,5.00
2018-10-21T06:27:59.648Z,5.10
2018-10-21T06:30:28.221Z,5.10
2018-10-21T06:32:56.768Z,5.10
2018-10-21T06:35:25.328Z,5.20
2018-10-21T06:37:53.863Z,5.20
2018-10-21T06:40:22.415Z,5.30
2018-10-21T06:42:50.940Z,5.30
2018-10-21T06:45:19.610Z,5.30
2018-10-21T06:47:48.099Z,5.40
2018-10-21T06:50:18.194Z,5.40
2018-10-21T06:52:46.839Z,5.50
2018-10-21T06:55:15.398Z,5.60
2018-10-21T06:57:45.010Z,5.70
2018-10-21T07:00:13.551Z,5.70
2018-10-21T07:02:42.111Z,5.80
2018-10-21T07:05:22.593Z,5.80
2018-10-21T07:07:51.376Z,5.90
2018-10-21T07:10:20.537Z,6.00
2018-10-21T07:12:49.073Z,6.60
2018-10-21T07:15:17.999Z,7.00
2018-10-21T07:17:46.820Z,7.60
2018-10-21T07:20:15.383Z,8.30
2018-10-21T07:22:44.702Z,9.00
2018-10-21T07:25:13.290Z,9.60
2018-10-21T07:27:41.976Z,9.80
2018-10-21T07:30:12.017Z,10.40
2018-10-21T07:32:41.314Z,11.10
2018-10-21T07:35:11.835Z,11.70
2018-10-21T07:37:41.117Z,12.10
2018-10-21T07:40:10.399Z,12.80
2018-10-21T07:42:38.905Z,13.30
2018-10-21T07:45:07.557Z,13.70
2018-10-21T07:47:36.121Z,13.80
2018-10-21T07:50:05.083Z,14.50
2018-10-21T07:52:33.633Z,14.80
2018-10-21T07:55:02.248Z,15.00
2018-10-21T07:57:30.760Z,15.60
2018-10-21T07:59:59.321Z,16.00
2018-10-21T08:02:27.855Z,16.20
2018-10-21T08:04:56.417Z,16.60
2018-10-21T08:07:36.176Z,17.20
2018-10-21T08:10:04.582Z,17.70
2018-10-21T08:12:33.364Z,17.90
2018-10-21T08:15:01.981Z,18.10
2018-10-21T08:17:30.496Z,18.70
2018-10-21T08:19:59.055Z,19.00
2018-10-21T08:22:27.603Z,19.50
2018-10-21T08:24:56.166Z,19.80
2018-10-21T08:27:24.771Z,20.10
2018-10-21T08:29:53.302Z,20.30
2018-10-21T08:32:21.844Z,20.70
2018-10-21T08:34:50.409Z,20.70
2018-10-21T08:37:18.951Z,21.20
2018-10-21T08:39:47.598Z,21.50
2018-10-21T08:42:16.134Z,21.90
2018-10-21T08:44:44.720Z,22.10
2018-10-21T08:47:13.271Z,22.00
2018-10-21T08:49:41.869Z,22.10
2018-10-21T08:52:10.435Z,22.70
2018-10-21T08:54:38.996Z,23.10
2018-10-21T08:57:07.593Z,23.00
2018-10-21T08:59:36.162Z,23.30
2018-10-21T09:02:04.797Z,23.80
2018-10-21T09:04:33.346Z,23.80
2018-10-21T09:07:01.950Z,24.20
2018-10-21T09:09:30.453Z,24.20
2018-10-21T09:11:59.001Z,24.70
2018-10-21T09:14:27.528Z,25.00
2018-10-21T09:16:56.085Z,24.90
2018-10-21T09:19:24.622Z,25.00
2018-10-21T09:21:53.229Z,25.00
2018-10-21T09:24:21.946Z,25.10
2018-10-21T09:26:50.869Z,24.90
2018-10-21T09:29:21.279Z,25.30
2018-10-21T09:31:49.861Z,25.40
2018-10-21T09:34:18.469Z,25.50
2018-10-21T09:36:47.005Z,25.50
2018-10-21T09:39:15.821Z,25.40
2018-10-21T09:41:44.816Z,25.70
2018-10-21T09:44:13.374Z,25.60
2018-10-21T09:46:42.592Z,25.90
2018-10-21T09:49:12.002Z,26.20
2018-10-21T09:51:40.640Z,26.60
2018-10-21T09:54:09.221Z,26.60
2018-10-21T09:56:38.056Z,26.80
2018-10-21T09:59:07.117Z,27.00
2018-10-21T10:01:41.113Z,26.40
2018-10-21T10:04:10.086Z,25.80
2018-10-21T10:06:38.612Z,26.20
2018-10-21T10:09:10.575Z,26.90
2018-10-21T10:11:39.185Z,27.20
2018-10-21T10:14:07.806Z,26.80
2018-10-21T10:16:36.540Z,27.20
2018-10-21T10:19:05.398Z,27.10
2018-10-21T10:21:33.946Z,27.80
2018-10-21T10:24:02.590Z,27.90
2018-10-21T10:26:31.107Z,27.90
2018-10-21T10:28:59.839Z,27.40
2018-10-21T10:31:28.444Z,27.90
2018-10-21T10:33:57.126Z,27.90
2018-10-21T10:36:25.690Z,28.20
2018-10-21T10:38:54.221Z,28.40
2018-10-21T10:41:22.784Z,28.30
2018-10-21T10:43:51.323Z,28.60
2018-10-21T10:46:19.947Z,28.40
2018-10-21T10:48:48.522Z,28.30
2018-10-21T10:51:17.084Z,28.20
2018-10-21T10:53:45.652Z,28.10
2018-10-21T10:56:14.230Z,28.00
2018-10-21T10:58:42.764Z,28.10
2018-10-21T11:01:11.453Z,27.90
2018-10-21T11:03:39.937Z,27.80
2018-10-21T11:06:08.774Z,28.00
2018-10-21T11:08:37.329Z,27.70
2018-10-21T11:11:06.033Z,27.20
2018-10-21T11:13:34.554Z,26.60
2018-10-21T11:16:04.182Z,25.80
2018-10-21T11:18:32.708Z,25.40
2018-10-21T11:21:01.281Z,24.50
2018-10-21T11:23:29.820Z,24.10
2018-10-21T11:25:58.375Z,24.20
2018-10-21T11:28:26.974Z,23.80
2018-10-21T11:30:55.563Z,23.00
2018-10-21T11:33:24.113Z,22.80
2018-10-21T11:35:52.655Z,22.50
2018-10-21T11:38:21.207Z,22.70
2018-10-21T11:40:49.760Z,22.70
2018-10-21T11:43:18.376Z,22.40
2018-10-21T11:45:46.964Z,21.90
2018-10-21T11:48:15.472Z,21.90
2018-10-21T11:50:44.086Z,21.40
2018-10-21T11:53:12.617Z,21.50
2018-10-21T11:55:42.205Z,21.30
2018-10-21T11:58:13.201Z,21.10
2018-10-21T12:00:42.345Z,20.90
2018-10-21T12:03:11.535Z,20.70
2018-10-21T12:05:40.736Z,20.50
2018-10-21T12:08:09.441Z,20.40
2018-10-21T12:10:37.981Z,20.30
2018-10-21T12:13:06.760Z,20.10
2018-10-21T12:15:35.971Z,19.50
2018-10-21T12:18:04.712Z,19.30
2018-10-21T12:20:33.245Z,19.30
2018-10-21T12:23:01.898Z,19.30
2018-10-21T12:25:30.360Z,19.40
2018-10-21T12:27:58.992Z,19.50
2018-10-21T12:30:27.505Z,19.50
2018-10-21T12:32:56.061Z,19.20
2018-10-21T12:35:24.601Z,19.10
2018-10-21T12:37:53.163Z,19.10
2018-10-21T12:40:21.691Z,19.10
2018-10-21T12:42:50.488Z,19.00
2018-10-21T12:45:19.020Z,19.00
2018-10-21T12:47:47.608Z,19.10
2018-10-21T12:50:16.173Z,19.10
2018-10-21T12:52:44.757Z,19.30
2018-10-21T12:55:13.899Z,19.20
2018-10-21T12:57:42.390Z,19.00
2018-10-21T13:00:11.167Z,19.00
2018-10-21T13:02:39.719Z,19.00
2018-10-21T13:05:08.643Z,18.70
2018-10-21T13:07:37.206Z,18.70
2018-10-21T13:10:06.223Z,18.80
2018-10-21T13:12:34.786Z,18.80
2018-10-21T13:15:03.585Z,18.70
2018-10-21T13:17:32.465Z,18.80
2018-10-21T13:20:00.991Z,18.70
2018-10-21T13:22:29.640Z,18.70
2018-10-21T13:24:58.194Z,18.60
2018-10-21T13:27:26.768Z,18.60
2018-10-21T13:29:55.306Z,18.70
2018-10-21T13:32:23.871Z,18.70
2018-10-21T13:34:52.397Z,18.80
2018-10-21T13:37:20.968Z,18.70
2018-10-21T13:39:49.542Z,18.60
2018-10-21T13:42:18.079Z,18.40
2018-10-21T13:44:46.612Z,18.30
2018-10-21T13:47:15.187Z,18.20
2018-10-21T13:49:43.741Z,18.30
2018-10-21T13:52:12.502Z,18.30
2018-10-21T13:54:40.928Z,18.40
2018-10-21T13:57:09.501Z,18.40
2018-10-21T13:59:38.027Z,18.40
2018-10-21T14:02:06.625Z,18.30
2018-10-21T14:04:35.156Z,18.30
2018-10-21T14:07:03.798Z,18.30
2018-10-21T14:09:32.268Z,18.30
2018-10-21T14:12:00.845Z,18.20
2018-10-21T14:14:29.371Z,18.20
2018-10-21T14:16:57.949Z,18.20
2018-10-21T14:19:26.736Z,18.10
2018-10-21T14:21:55.401Z,18.10
2018-10-21T14:24:23.967Z,18.10
2018-10-21T14:26:52.499Z,18.00
2018-10-21T14:29:21.032Z,18.00
2018-10-21T14:31:49.590Z,18.00
2018-10-21T14:34:18.216Z,18.00
2018-10-21T14:36:46.773Z,17.90
2018-10-21T14:39:15.369Z,17.90
2018-10-21T14:41:43.901Z,17.90
2018-10-21T14:44:12.437Z,17.80
2018-10-21T14:46:41.013Z,17.70
2018-10-21T14:49:10.163Z,17.70
2018-10-21T14:51:38.727Z,17.60
2018-10-21T14:54:07.470Z,17.60
2018-10-21T14:56:36.006Z,17.60
2018-10-21T14:59:04.597Z,17.50
2018-10-21T15:01:33.143Z,17.50
2018-10-21T15:04:01.784Z,17.60
2018-10-21T15:06:30.472Z,17.50
2018-10-21T15:08:59.210Z,17.50
2018-10-21T15:11:27.744Z,17.50
2018-10-21T15:13:56.338Z,17.40
2018-10-21T15:16:24.876Z,17.40
2018-10-21T15:18:53.439Z,17.30
2018-10-21T15:21:22.008Z,17.30
2018-10-21T15:23:50.571Z,17.20
2018-10-21T15:26:19.245Z,17.20
2018-10-21T15:28:47.717Z,17.20
2018-10-21T15:31:16.256Z,17.10
2018-10-21T15:33:44.812Z,17.10
2018-10-21T15:36:13.344Z,17.00
2018-10-21T15:38:41.891Z,16.90
2018-10-21T15:41:10.421Z,16.90
2018-10-21T15:43:38.960Z,16.80
2018-10-21T15:46:07.613Z,16.80
2018-10-21T15:48:36.397Z,16.70
2018-10-21T15:51:04.984Z,16.70
2018-10-21T15:53:33.537Z,16.60
2018-10-21T15:56:02.148Z,16.60
2018-10-21T16:01:10.912Z,16.50
2018-10-21T16:03:39.481Z,16.40
2018-10-21T16:06:08.024Z,16.30
2018-10-21T16:08:36.578Z,16.30
2018-10-21T16:11:05.476Z,16.20
2018-10-21T16:13:34.153Z,16.10
2018-10-21T16:16:02.766Z,15.90
2018-10-21T16:18:31.316Z,15.70
2018-10-21T16:20:59.876Z,15.60
2018-10-21T16:23:28.440Z,15.60
2018-10-21T16:25:57.020Z,15.50
2018-10-21T16:28:25.733Z,15.20
2018-10-21T16:30:54.221Z,14.90
2018-10-21T16:33:22.859Z,14.80
2018-10-21T16:35:51.409Z,14.70
2018-10-21T16:38:19.994Z,14.60
2018-10-21T16:40:48.523Z,14.30
2018-10-21T16:43:17.296Z,14.00
2018-10-21T16:45:45.859Z,13.90
2018-10-21T16:48:14.450Z,13.70
2018-10-21T16:50:42.987Z,13.70
2018-10-21T16:53:11.545Z,13.50
2018-10-21T16:55:40.132Z,13.40
2018-10-21T16:58:08.788Z,13.20
2018-10-21T17:00:37.606Z,13.20
2018-10-21T17:03:06.122Z,13.00
2018-10-21T17:05:34.595Z,12.80
2018-10-21T17:08:03.174Z,12.70
2018-10-21T17:10:32.058Z,12.70
2018-10-21T17:13:00.739Z,12.50
2018-10-21T17:15:29.307Z,12.30
2018-10-21T17:17:57.835Z,12.20
2018-10-21T17:20:26.417Z,12.10
2018-10-21T17:22:55.081Z,12.00
2018-10-21T17:25:23.625Z,11.90
2018-10-21T17:27:52.212Z,11.80
2018-10-21T17:30:20.839Z,11.70
2018-10-21T17:32:49.343Z,11.60
2018-10-21T17:35:17.900Z,11.60
2018-10-21T17:37:46.465Z,11.50
2018-10-21T17:40:15.141Z,11.50
2018-10-21T17:42:43.595Z,11.40
2018-10-21T17:45:13.906Z,11.50
2018-10-21T17:47:42.468Z,11.50
2018-10-21T17:50:12.788Z,11.50
2018-10-21T17:52:41.657Z,11.50
2018-10-21T17:55:10.350Z,11.50
2018-10-21T17:57:38.918Z,11.40
2018-10-21T18:00:09.301Z,11.10
2018-10-21T18:02:37.925Z,11.10
2018-10-21T18:05:08.044Z,11.20
2018-10-21T18:07:36.611Z,11.00
2018-10-21T18:10:05.318Z,10.90
2018-10-21T18:12:33.847Z,11.00
2018-10-21T18:15:02.416Z,10.80
2018-10-21T18:17:30.973Z,10.80
2018-10-21T18:19:59.596Z,10.70
2018-10-21T18:22:28.144Z,10.80
2018-10-21T18:24:56.687Z,10.60
2018-10-21T18:27:25.300Z,10.50
2018-10-21T18:29:53.841Z,10.50
2018-10-21T18:32:22.393Z,10.50
2018-10-21T18:34:50.929Z,10.40
2018-10-21T18:37:19.476Z,10.30
2018-10-21T18:39:48.009Z,10.30
2018-10-21T18:42:16.559Z,10.40
2018-10-21T18:44:45.103Z,10.30
2018-10-21T18:47:13.676Z,10.30
2018-10-21T18:49:42.244Z,10.20
2018-10-21T18:52:10.871Z,10.10
2018-10-21T18:54:39.373Z,10.20
2018-10-21T18:57:07.934Z,10.00
2018-10-21T18:59:36.484Z,10.00
2018-10-21T19:02:05.431Z,9.90
2018-10-21T19:04:33.983Z,9.90
2018-10-21T19:07:02.655Z,9.80
2018-10-21T19:09:31.168Z,9.80
2018-10-21T19:11:59.740Z,9.70
2018-10-21T19:14:28.808Z,9.70
2018-10-21T19:16:57.357Z,9.70
2018-10-21T19:19:25.889Z,9.50
2018-10-21T19:21:54.457Z,9.50
2018-10-21T19:24:22.979Z,9.50
2018-10-21T19:26:51.553Z,9.50
2018-10-21T19:29:20.075Z,9.50
2018-10-21T19:31:48.626Z,9.50
2018-10-21T19:34:17.443Z,9.40
2018-10-21T19:36:45.903Z,9.30
2018-10-21T19:39:14.487Z,9.30
2018-10-21T19:41:43.043Z,9.20
2018-10-21T19:44:11.981Z,9.10
2018-10-21T19:46:40.621Z,9.10
2018-10-21T19:49:09.816Z,9.10
2018-10-21T19:51:38.307Z,8.90
2018-10-21T19:54:06.909Z,8.90
2018-10-21T19:56:35.464Z,8.80
2018-10-21T19:59:04.993Z,8.80
2018-10-21T20:01:34.114Z,8.90
2018-10-21T20:04:02.677Z,8.80
2018-10-21T20:06:31.236Z,8.70
2018-10-21T20:08:59.773Z,8.70
2018-10-21T20:11:28.324Z,8.60
2018-10-21T20:13:56.897Z,8.60
2018-10-21T20:16:25.462Z,8.60
2018-10-21T20:18:54.040Z,8.60
2018-10-21T20:21:22.581Z,8.60
2018-10-21T20:23:51.106Z,8.50
2018-10-21T20:26:19.648Z,8.50
2018-10-21T20:28:48.185Z,8.50
2018-10-21T20:31:16.843Z,8.50
2018-10-21T20:33:45.419Z,8.50
2018-10-21T20:36:14.011Z,8.40
2018-10-21T20:38:42.506Z,8.40
2018-10-21T20:41:11.059Z,8.40
2018-10-21T20:43:39.604Z,8.40
2018-10-21T20:46:08.217Z,8.30
2018-10-21T20:48:36.728Z,8.30
2018-10-21T20:51:05.591Z,8.30
2018-10-21T20:53:34.089Z,8.30
2018-10-21T20:56:02.656Z,8.30
2018-10-21T20:58:31.614Z,8.20
2018-10-21T21:01:00.144Z,8.30
2018-10-21T21:03:28.692Z,8.30
2018-10-21T21:05:57.232Z,8.30
2018-10-21T21:08:25.862Z,8.30
2018-10-21T21:10:54.388Z,8.30
2018-10-21T21:13:22.942Z,8.30
2018-10-21T21:15:51.465Z,8.20
2018-10-21T21:18:20.008Z,8.20
2018-10-21T21:20:48.535Z,8.10
2018-10-21T21:23:17.079Z,8.10
2018-10-21T21:25:45.593Z,8.10
2018-10-21T21:28:14.245Z,8.10
2018-10-21T21:30:42.829Z,8.00
2018-10-21T21:33:11.315Z,8.00
2018-10-21T21:35:39.836Z,8.00
2018-10-21T21:38:08.388Z,8.00
2018-10-21T21:40:36.920Z,8.00
2018-10-21T21:43:05.640Z,8.00
2018-10-21T21:45:34.188Z,8.00
2018-10-21T21:48:02.775Z,8.00
2018-10-21T21:50:31.317Z,8.00
2018-10-21T21:52:59.879Z,8.00
2018-10-21T21:55:28.403Z,8.00
2018-10-21T21:57:57.004Z,7.90
2018-10-21T22:00:25.553Z,7.90
2018-10-21T22:02:54.093Z,8.00
2018-10-21T22:05:22.649Z,8.00
2018-10-21T22:07:51.216Z,8.00
2018-10-21T22:10:19.825Z,8.00
2018-10-21T22:12:48.319Z,8.00
2018-10-21T22:15:16.875Z,8.00
2018-10-21T22:17:45.423Z,8.00
2018-10-21T22:20:14.212Z,8.00
2018-10-21T22:22:43.236Z,7.90
2018-10-21T22:25:11.840Z,7.90
2018-10-21T22:27:40.387Z,7.90
2018-10-21T22:30:10.189Z,8.00
2018-10-21T22:32:39.004Z,8.00
2018-10-21T22:35:08.507Z,7.90
2018-10-21T22:37:37.268Z,7.90
2018-10-21T22:40:06.492Z,7.80
2018-10-21T22:42:35.025Z,7.80
2018-10-21T22:45:03.588Z,7.80
2018-10-21T22:47:32.140Z,7.70
2018-10-21T22:50:00.722Z,7.70
2018-10-21T22:52:29.280Z,7.60
2018-10-21T22:54:57.795Z,7.60
2018-10-21T22:57:26.364Z,7.70
2018-10-21T22:59:55.043Z,7.70
2018-10-21T23:02:23.580Z,7.70
2018-10-21T23:04:52.118Z,7.70
2018-10-21T23:07:20.679Z,7.60
2018-10-21T23:09:49.190Z,7.50
2018-10-21T23:12:17.997Z,7.40
2018-10-21T23:14:46.499Z,7.40
2018-10-21T23:17:15.075Z,7.40
2018-10-21T23:19:50.375Z,7.40
2018-10-21T23:22:19.068Z,7.40
2018-10-21T23:24:47.796Z,7.30
2018-10-21T23:27:16.348Z,7.30
2018-10-21T23:29:44.947Z,7.20
2018-10-21T23:32:13.600Z,7.20
2018-10-21T23:34:42.115Z,7.20
2018-10-21T23:37:10.672Z,7.20
2018-10-21T23:39:39.210Z,7.20
2018-10-21T23:42:07.860Z,7.20
2018-10-21T23:44:36.327Z,7.20
2018-10-21T23:47:04.995Z,7.20
2018-10-21T23:49:33.541Z,7.10
2018-10-21T23:52:02.101Z,7.10
2018-10-21T23:54:30.636Z,6.90
2018-10-21T23:56:59.488Z,7.00
2018-10-21T23:59:28.045Z,6.90
